Time;durP1;ratioP1;P1;durP2;ratioP2;P2;SDS_P1;SDS_P2;PMS_P1;PMS_P2;Temp;Humidity;BMP_temperature;BMP_pressure;BME280_temperature;BME280_humidity;BME280_pressure;Samples;Min_cycle;Max_cycle;Signal;HPM_P1;HPM_P2
2023/05/15 00:01:42;;;;;;;;;;;18.60;63.10;;;;;;5023033;28;809;-71
2023/05/15 00:04:08;;;;;;;;;;;18.60;63.00;;;;;;5033632;28;914;-72
2023/05/15 00:06:33;;;;;;;;;;;18.60;63.00;;;;;;5026205;28;1254;-70
2023/05/15 00:08:58;;;;;;;;;;;18.60;63.00;;;;;;5030055;28;850;-70
2023/05/15 00:11:26;;;;;;;;;;;18.60;63.00;;;;;;5020960;28;1264;-69
2023/05/15 00:13:52;;;;;;;;;;;18.60;63.00;;;;;;5036914;28;851;-72
2023/05/15 00:16:18;;;;;;;;;;;18.60;63.10;;;;;;5033729;28;1346;-71
2023/05/15 00:18:43;;;;;;;;;;;18.60;63.10;;;;;;5031198;28;1902;-71
2023/05/15 00:21:09;;;;;;;;;;;18.60;63.10;;;;;;5027009;28;860;-71
2023/05/15 00:23:34;;;;;;;;;;;18.60;63.10;;;;;;5030032;28;1531;-71
2023/05/15 00:26:00;;;;;;;;;;;18.60;63.10;;;;;;5031142;28;1346;-71
2023/05/15 00:28:25;;;;;;;;;;;18.60;63.10;;;;;;5027261;28;951;-71
2023/05/15 00:30:51;;;;;;;;;;;18.60;63.10;;;;;;5028078;28;905;-71
2023/05/15 00:33:16;;;;;;;;;;;18.60;63.10;;;;;;5027238;28;930;-71
2023/05/15 00:35:42;;;;;;;;;;;18.60;63.10;;;;;;5025201;28;1251;-71
2023/05/15 00:38:07;;;;;;;;;;;18.60;63.10;;;;;;5027266;28;1909;-71
2023/05/15 00:40:33;;;;;;;;;;;18.60;63.10;;;;;;5029077;28;1233;-70
2023/05/15 00:42:58;;;;;;;;;;;18.60;63.10;;;;;;5020121;28;995;-70
2023/05/15 00:45:24;;;;;;;;;;;18.60;63.10;;;;;;5018087;28;880;-70
2023/05/15 00:47:49;;;;;;;;;;;18.60;63.10;;;;;;5027724;28;1259;-70
2023/05/15 00:50:15;;;;;;;;;;;18.60;63.10;;;;;;5029825;28;1440;-70
2023/05/15 00:52:40;;;;;;;;;;;18.60;63.10;;;;;;5031944;28;1070;-70
2023/05/15 00:55:06;;;;;;;;;;;18.60;63.10;;;;;;5029874;28;843;-70
2023/05/15 00:57:31;;;;;;;;;;;18.60;63.10;;;;;;5030066;28;1930;-70
2023/05/15 00:59:57;;;;;;;;;;;18.60;63.10;;;;;;5043363;28;868;-70
2023/05/15 01:02:23;;;;;;;;;;;18.60;63.10;;;;;;5026002;28;809;-71
2023/05/15 01:04:48;;;;;;;;;;;18.60;63.10;;;;;;5024703;28;825;-71
2023/05/15 01:07:14;;;;;;;;;;;18.60;63.10;;;;;;5026146;28;1298;-71
2023/05/15 01:09:42;;;;;;;;;;;18.60;63.10;;;;;;5022503;28;814;-70
2023/05/15 01:12:08;;;;;;;;;;;18.60;63.10;;;;;;5022231;28;872;-71
2023/05/15 01:14:33;;;;;;;;;;;18.60;63.10;;;;;;5030536;28;872;-70
2023/05/15 01:16:59;;;;;;;;;;;18.60;63.10;;;;;;5025291;28;1292;-70
2023/05/15 01:19:24;;;;;;;;;;;18.60;63.20;;;;;;5029586;28;1965;-70
2023/05/15 01:21:50;;;;;;;;;;;18.60;63.20;;;;;;5025861;28;903;-71
2023/05/15 01:24:18;;;;;;;;;;;18.60;63.10;;;;;;5021623;28;1239;-71
2023/05/15 01:26:52;;;;;;;;;;;18.60;63.20;;;;;;5024753;28;1397;-70
2023/05/15 01:29:50;;;;;;;;;;;18.60;63.20;;;;;;5030278;28;990;-70
2023/05/15 01:32:36;;;;;;;;;;;18.60;63.20;;;;;;5031299;28;1128;-70
2023/05/15 01:35:15;;;;;;;;;;;18.60;63.20;;;;;;5021524;28;1487;-70
2023/05/15 01:37:43;;;;;;;;;;;18.60;63.20;;;;;;5031338;28;1961;-70
2023/05/15 01:40:09;;;;;;;;;;;18.60;63.20;;;;;;5033767;28;938;-70
2023/05/15 01:42:34;;;;;;;;;;;18.60;63.20;;;;;;5033933;28;1591;-70
2023/05/15 01:45:00;;;;;;;;;;;18.60;63.20;;;;;;5024204;28;911;-70
2023/05/15 01:47:27;;;;;;;;;;;18.60;63.20;;;;;;5018782;28;1263;-69
2023/05/15 01:49:52;;;;;;;;;;;18.60;63.20;;;;;;5020714;28;808;-68
2023/05/15 01:52:21;;;;;;;;;;;18.60;63.20;;;;;;5026914;28;1179;-69
2023/05/15 01:54:47;;;;;;;;;;;18.60;63.20;;;;;;5014029;28;1361;-68
2023/05/15 01:57:12;;;;;;;;;;;18.60;63.20;;;;;;5030521;28;1362;-74
2023/05/15 01:59:38;;;;;;;;;;;18.60;63.20;;;;;;5029505;28;1922;-73
2023/05/15 02:02:03;;;;;;;;;;;18.60;63.20;;;;;;5043663;28;1139;-71
2023/05/15 02:04:29;;;;;;;;;;;18.60;63.20;;;;;;5022141;28;876;-71
2023/05/15 02:06:54;;;;;;;;;;;18.60;63.20;;;;;;5028628;28;1379;-71
2023/05/15 02:09:20;;;;;;;;;;;18.60;63.30;;;;;;5028300;28;907;-71
2023/05/15 02:11:46;;;;;;;;;;;18.60;63.30;;;;;;5024142;28;1019;-71
2023/05/15 02:14:11;;;;;;;;;;;18.60;63.20;;;;;;5023000;28;915;-71
2023/05/15 02:16:37;;;;;;;;;;;18.60;63.20;;;;;;5027278;28;1212;-71
2023/05/15 02:19:02;;;;;;;;;;;18.60;63.30;;;;;;5030093;28;2042;-69
2023/05/15 02:21:28;;;;;;;;;;;18.60;63.30;;;;;;5034262;28;864;-69
2023/05/15 02:23:53;;;;;;;;;;;18.60;63.30;;;;;;5021781;28;892;-69
2023/05/15 02:26:20;;;;;;;;;;;18.60;63.30;;;;;;5024483;28;1343;-69
2023/05/15 02:28:53;;;;;;;;;;;18.60;63.30;;;;;;5027110;28;880;-69
2023/05/15 02:31:25;;;;;;;;;;;18.60;63.30;;;;;;5032322;28;880;-68
2023/05/15 02:33:51;;;;;;;;;;;18.60;63.30;;;;;;5021119;28;1481;-69
2023/05/15 02:36:18;;;;;;;;;;;18.60;63.30;;;;;;5040938;28;1286;-69
2023/05/15 02:38:47;;;;;;;;;;;18.60;63.30;;;;;;5023452;28;2000;-69
2023/05/15 02:41:13;;;;;;;;;;;18.60;63.30;;;;;;5023256;28;924;-71
2023/05/15 02:43:39;;;;;;;;;;;18.60;63.30;;;;;;5019446;28;950;-69
2023/05/15 02:46:05;;;;;;;;;;;18.60;63.30;;;;;;5024341;28;1332;-71
2023/05/15 02:48:30;;;;;;;;;;;18.60;63.30;;;;;;5030844;28;839;-71
2023/05/15 02:50:55;;;;;;;;;;;18.60;63.30;;;;;;5029617;28;919;-71
2023/05/15 02:53:21;;;;;;;;;;;18.60;64.10;;;;;;5024315;28;1022;-71
2023/05/15 02:55:47;;;;;;;;;;;18.60;63.30;;;;;;5030099;28;1442;-71
2023/05/15 02:58:12;;;;;;;;;;;18.60;63.30;;;;;;5027060;28;1898;-71
2023/05/15 03:00:38;;;;;;;;;;;18.60;63.30;;;;;;5023806;28;946;-71
2023/05/15 03:03:03;;;;;;;;;;;18.60;63.30;;;;;;5020819;28;856;-71
2023/05/15 03:05:29;;;;;;;;;;;18.60;63.30;;;;;;5021242;28;1266;-70
2023/05/15 03:07:54;;;;;;;;;;;18.60;63.40;;;;;;5023539;28;1278;-70
2023/05/15 03:10:22;;;;;;;;;;;18.60;63.30;;;;;;5035325;28;986;-71
2023/05/15 03:12:48;;;;;;;;;;;18.60;63.40;;;;;;5026012;28;851;-71
2023/05/15 03:15:13;;;;;;;;;;;18.60;63.40;;;;;;5029268;28;1030;-71
2023/05/15 03:17:39;;;;;;;;;;;18.60;63.40;;;;;;5025799;28;1906;-70
2023/05/15 03:20:04;;;;;;;;;;;18.60;63.30;;;;;;5030020;28;888;-70
2023/05/15 03:22:30;;;;;;;;;;;18.60;63.40;;;;;;5022980;28;872;-71
2023/05/15 03:24:56;;;;;;;;;;;18.60;63.40;;;;;;5027034;28;867;-71
2023/05/15 03:27:21;;;;;;;;;;;18.60;63.40;;;;;;5030274;28;1359;-70
2023/05/15 03:29:49;;;;;;;;;;;18.60;63.30;;;;;;5025683;28;863;-71
2023/05/15 03:32:15;;;;;;;;;;;18.60;63.40;;;;;;5027371;28;820;-71
2023/05/15 03:34:41;;;;;;;;;;;18.60;63.40;;;;;;5028439;28;1033;-70
2023/05/15 03:37:06;;;;;;;;;;;18.60;63.60;;;;;;5030128;28;1346;-71
2023/05/15 03:39:32;;;;;;;;;;;18.60;63.40;;;;;;5035735;28;1898;-71
2023/05/15 03:41:57;;;;;;;;;;;18.60;63.40;;;;;;5017677;28;1253;-71
2023/05/15 03:44:22;;;;;;;;;;;18.60;63.40;;;;;;5021723;28;951;-70
2023/05/15 03:46:48;;;;;;;;;;;18.60;63.40;;;;;;5027646;28;1373;-70
2023/05/15 03:49:14;;;;;;;;;;;18.60;63.40;;;;;;5033072;28;1284;-70
2023/05/15 03:51:39;;;;;;;;;;;18.60;63.40;;;;;;5027149;28;905;-70
2023/05/15 03:54:05;;;;;;;;;;;18.60;63.40;;;;;;5026371;28;880;-70
2023/05/15 03:56:30;;;;;;;;;;;18.60;63.40;;;;;;5019955;28;1296;-70
2023/05/15 03:58:56;;;;;;;;;;;18.60;63.40;;;;;;5027426;28;1915;-70
2023/05/15 04:01:21;;;;;;;;;;;18.60;63.40;;;;;;5055973;28;1648;-70
2023/05/15 04:03:47;;;;;;;;;;;18.60;63.40;;;;;;5027895;28;1002;-70
2023/05/15 04:06:12;;;;;;;;;;;18.60;63.40;;;;;;5026803;28;1332;-70
2023/05/15 04:08:38;;;;;;;;;;;18.60;63.40;;;;;;5026255;28;872;-71
2023/05/15 04:11:03;;;;;;;;;;;18.60;63.40;;;;;;5029848;28;871;-70
2023/05/15 04:13:29;;;;;;;;;;;18.60;63.40;;;;;;5034351;28;998;-70
2023/05/15 04:15:54;;;;;;;;;;;18.60;63.40;;;;;;5032601;28;1313;-70
2023/05/15 04:18:20;;;;;;;;;;;18.60;63.40;;;;;;5037770;28;1909;-71
2023/05/15 04:20:45;;;;;;;;;;;18.60;63.50;;;;;;5036328;28;1077;-71
2023/05/15 04:23:11;;;;;;;;;;;18.60;63.40;;;;;;5027216;28;1236;-71
2023/05/15 04:25:36;;;;;;;;;;;18.60;63.50;;;;;;5024889;28;1249;-70
2023/05/15 04:28:02;;;;;;;;;;;18.60;63.40;;;;;;5023947;28;906;-71
2023/05/15 04:30:27;;;;;;;;;;;18.60;63.40;;;;;;5026906;28;962;-71
2023/05/15 04:32:53;;;;;;;;;;;18.60;63.40;;;;;;5025144;28;899;-71
2023/05/15 04:35:18;;;;;;;;;;;18.60;64.00;;;;;;5025256;28;1366;-71
2023/05/15 04:37:46;;;;;;;;;;;18.60;63.50;;;;;;5025950;28;1899;-71
2023/05/15 04:40:13;;;;;;;;;;;18.60;63.50;;;;;;5029510;28;1263;-71
2023/05/15 04:42:39;;;;;;;;;;;18.60;63.50;;;;;;5028538;28;858;-71
2023/05/15 04:45:04;;;;;;;;;;;18.60;63.50;;;;;;5021369;28;851;-71
2023/05/15 04:47:30;;;;;;;;;;;18.60;63.50;;;;;;5026879;28;1272;-70
2023/05/15 04:49:55;;;;;;;;;;;18.60;63.50;;;;;;5031079;28;1290;-70
2023/05/15 04:52:21;;;;;;;;;;;18.60;63.50;;;;;;5026258;28;899;-70
2023/05/15 04:54:48;;;;;;;;;;;18.60;63.50;;;;;;5025181;28;836;-70
2023/05/15 04:57:13;;;;;;;;;;;18.60;63.50;;;;;;5026529;28;1392;-70
2023/05/15 04:59:39;;;;;;;;;;;18.60;63.50;;;;;;5024006;28;1938;-70
2023/05/15 05:02:05;;;;;;;;;;;18.60;63.50;;;;;;5025852;28;1235;-71
2023/05/15 05:04:30;;;;;;;;;;;18.60;63.50;;;;;;5028626;28;871;-71
2023/05/15 05:06:56;;;;;;;;;;;18.60;63.50;;;;;;5029202;28;1263;-71
2023/05/15 05:09:22;;;;;;;;;;;18.60;63.50;;;;;;5024717;28;1177;-71
2023/05/15 05:11:48;;;;;;;;;;;18.60;63.50;;;;;;5027005;28;853;-71
2023/05/15 05:14:13;;;;;;;;;;;18.60;63.50;;;;;;5026369;28;871;-71
2023/05/15 05:16:39;;;;;;;;;;;18.60;63.50;;;;;;5029494;28;1367;-70
2023/05/15 05:19:04;;;;;;;;;;;18.60;63.50;;;;;;5023858;28;1971;-71
2023/05/15 05:21:30;;;;;;;;;;;18.60;63.50;;;;;;5026675;28;1186;-71
2023/05/15 05:23:55;;;;;;;;;;;18.60;63.50;;;;;;5022908;28;1081;-71
2023/05/15 05:26:21;;;;;;;;;;;18.60;63.50;;;;;;5030061;28;1378;-71
2023/05/15 05:28:46;;;;;;;;;;;18.60;63.50;;;;;;5027894;28;872;-71
2023/05/15 05:31:12;;;;;;;;;;;18.60;63.50;;;;;;5030590;28;1366;-70
2023/05/15 05:33:37;;;;;;;;;;;18.60;63.50;;;;;;5023509;28;1472;-70
2023/05/15 05:36:04;;;;;;;;;;;18.60;63.50;;;;;;5021185;28;1379;-70
2023/05/15 05:38:29;;;;;;;;;;;18.60;63.50;;;;;;5024332;28;1965;-70
2023/05/15 05:40:55;;;;;;;;;;;18.60;63.50;;;;;;5024581;28;1316;-70
2023/05/15 05:43:20;;;;;;;;;;;18.60;63.50;;;;;;5018276;28;1719;-69
2023/05/15 05:45:46;;;;;;;;;;;18.60;63.60;;;;;;5023699;28;2245;-69
2023/05/15 05:48:12;;;;;;;;;;;18.60;63.50;;;;;;5024319;28;2096;-70
2023/05/15 05:50:38;;;;;;;;;;;18.60;63.50;;;;;;5026319;28;1250;-70
2023/05/15 05:53:03;;;;;;;;;;;18.60;63.50;;;;;;5023483;28;1481;-71
2023/05/15 05:55:31;;;;;;;;;;;18.60;63.50;;;;;;5020414;28;2164;-71
2023/05/15 05:57:57;;;;;;;;;;;18.60;63.50;;;;;;5024821;28;1930;-70
2023/05/15 06:00:23;;;;;;;;;;;18.60;63.50;;;;;;5026852;28;1409;-71
2023/05/15 06:02:48;;;;;;;;;;;18.60;63.60;;;;;;5054832;28;808;-70
2023/05/15 06:05:14;;;;;;;;;;;18.60;63.60;;;;;;5023213;28;876;-70
2023/05/15 06:07:40;;;;;;;;;;;18.60;63.50;;;;;;5021155;28;1363;-70
2023/05/15 06:10:08;;;;;;;;;;;18.60;63.50;;;;;;5022693;28;832;-70
2023/05/15 06:12:33;;;;;;;;;;;18.60;63.50;;;;;;5020400;28;1632;-69
2023/05/15 06:14:59;;;;;;;;;;;18.60;63.50;;;;;;5018403;28;1370;-70
2023/05/15 06:17:24;;;;;;;;;;;18.60;63.60;;;;;;5019064;28;1361;-70
2023/05/15 06:19:50;;;;;;;;;;;18.60;63.60;;;;;;5026031;28;1968;-70
2023/05/15 06:22:15;;;;;;;;;;;18.60;63.50;;;;;;5025578;28;931;-70
2023/05/15 06:24:41;;;;;;;;;;;18.60;63.50;;;;;;5025040;28;867;-71
2023/05/15 06:27:06;;;;;;;;;;;18.60;63.50;;;;;;5015927;28;1286;-70
2023/05/15 06:29:32;;;;;;;;;;;18.50;63.50;;;;;;5025388;28;1658;-69
2023/05/15 06:31:57;;;;;;;;;;;18.60;63.50;;;;;;5023507;28;1088;-69
2023/05/15 06:34:23;;;;;;;;;;;18.60;63.60;;;;;;5020981;28;1049;-68
2023/05/15 06:36:48;;;;;;;;;;;18.60;63.50;;;;;;5052569;28;1275;-68
2023/05/15 06:39:14;;;;;;;;;;;18.60;63.60;;;;;;5026754;28;1910;-67
2023/05/15 06:41:39;;;;;;;;;;;18.60;63.50;;;;;;5027333;28;1267;-67
2023/05/15 06:44:04;;;;;;;;;;;18.60;63.60;;;;;;5024533;28;935;-69
2023/05/15 06:46:30;;;;;;;;;;;18.60;63.60;;;;;;5019800;28;1338;-70
2023/05/15 06:48:56;;;;;;;;;;;18.60;63.60;;;;;;5027606;28;1287;-68
2023/05/15 06:51:21;;;;;;;;;;;18.60;63.60;;;;;;5025656;28;859;-68
2023/05/15 06:53:47;;;;;;;;;;;18.60;63.60;;;;;;5020300;28;808;-67
2023/05/15 06:56:12;;;;;;;;;;;18.60;63.60;;;;;;5019012;28;1256;-68
2023/05/15 06:58:38;;;;;;;;;;;18.60;63.60;;;;;;5029388;28;1898;-70
2023/05/15 07:01:05;;;;;;;;;;;18.60;63.60;;;;;;5022807;28;915;-69
2023/05/15 07:03:30;;;;;;;;;;;18.60;63.60;;;;;;5025096;28;848;-71
2023/05/15 07:05:56;;;;;;;;;;;18.60;63.60;;;;;;5026404;28;1371;-70
2023/05/15 07:08:21;;;;;;;;;;;18.60;63.60;;;;;;5026935;28;934;-68
2023/05/15 07:10:47;;;;;;;;;;;18.60;63.60;;;;;;5028277;28;853;-69
2023/05/15 07:13:12;;;;;;;;;;;18.60;63.60;;;;;;5023694;28;899;-69
2023/05/15 07:15:38;;;;;;;;;;;18.60;63.60;;;;;;5016288;28;1256;-68
2023/05/15 07:18:03;;;;;;;;;;;18.60;63.60;;;;;;5025829;28;1968;-68
2023/05/15 07:20:29;;;;;;;;;;;18.60;63.60;;;;;;5025243;28;816;-69
2023/05/15 07:22:54;;;;;;;;;;;18.60;63.60;;;;;;5024829;28;958;-69
2023/05/15 07:25:20;;;;;;;;;;;18.60;63.60;;;;;;5024223;28;1006;-69
2023/05/15 07:27:45;;;;;;;;;;;18.60;63.60;;;;;;5026559;28;2232;-68
2023/05/15 07:30:11;;;;;;;;;;;18.60;63.60;;;;;;5026045;28;1364;-70
2023/05/15 07:32:36;;;;;;;;;;;18.60;63.70;;;;;;5023776;28;1491;-70
2023/05/15 07:35:03;;;;;;;;;;;18.60;63.70;;;;;;5020920;28;1430;-70
2023/05/15 07:37:29;;;;;;;;;;;18.60;63.70;;;;;;5025502;28;1272;-70
2023/05/15 07:39:55;;;;;;;;;;;18.50;63.70;;;;;;5024715;28;1902;-69
2023/05/15 07:42:20;;;;;;;;;;;18.60;63.70;;;;;;5026569;28;846;-69
2023/05/15 07:44:46;;;;;;;;;;;18.60;63.70;;;;;;5024165;28;889;-70
2023/05/15 07:47:11;;;;;;;;;;;18.60;63.70;;;;;;5031663;28;2110;-69
2023/05/15 07:49:37;;;;;;;;;;;18.60;63.80;;;;;;5031012;28;1372;-69
2023/05/15 07:52:02;;;;;;;;;;;18.60;63.80;;;;;;5028076;28;1361;-70
2023/05/15 07:54:30;;;;;;;;;;;18.60;63.70;;;;;;5025913;28;1258;-70
2023/05/15 07:56:56;;;;;;;;;;;18.60;63.70;;;;;;5027529;28;1345;-71
2023/05/15 07:59:21;;;;;;;;;;;18.60;63.70;;;;;;5026500;28;2271;-68
2023/05/15 08:01:47;;;;;;;;;;;18.60;63.80;;;;;;5028562;28;1309;-70
2023/05/15 08:04:13;;;;;;;;;;;18.60;63.70;;;;;;5020830;28;949;-70
2023/05/15 08:06:38;;;;;;;;;;;18.60;63.70;;;;;;5030323;28;1405;-69
2023/05/15 08:09:04;;;;;;;;;;;18.60;63.70;;;;;;5055448;28;1249;-68
2023/05/15 08:11:29;;;;;;;;;;;18.60;63.70;;;;;;5029784;28;801;-70
2023/05/15 08:13:55;;;;;;;;;;;18.60;63.70;;;;;;5028610;28;794;-70
2023/05/15 08:16:20;;;;;;;;;;;18.60;63.70;;;;;;5030542;28;1279;-68
2023/05/15 08:18:46;;;;;;;;;;;18.60;63.70;;;;;;5033132;28;1936;-70
2023/05/15 08:21:12;;;;;;;;;;;18.60;63.70;;;;;;5032546;28;867;-70
2023/05/15 08:23:37;;;;;;;;;;;18.60;63.70;;;;;;5024965;28;912;-70
2023/05/15 08:26:03;;;;;;;;;;;18.60;63.70;;;;;;5030993;28;1259;-70
2023/05/15 08:28:28;;;;;;;;;;;18.60;64.50;;;;;;5029859;28;879;-70
2023/05/15 08:30:54;;;;;;;;;;;18.60;63.70;;;;;;5026569;28;859;-69
2023/05/15 08:33:19;;;;;;;;;;;18.60;63.70;;;;;;5024823;28;1066;-69
2023/05/15 08:35:45;;;;;;;;;;;18.50;63.70;;;;;;5024333;28;1410;-69
2023/05/15 08:38:10;;;;;;;;;;;18.60;63.70;;;;;;5022149;28;2094;-69
2023/05/15 08:40:36;;;;;;;;;;;18.60;63.80;;;;;;5026724;28;1369;-70
2023/05/15 08:43:19;;;;;;;;;;;18.60;63.70;;;;;;5031747;28;1507;-70
2023/05/15 08:45:45;;;;;;;;;;;18.60;63.70;;;;;;5006254;28;1453;-70
2023/05/15 08:48:15;;;;;;;;;;;18.60;62.00;;;;;;5023789;28;886;-69
2023/05/15 08:50:40;;;;;;;;;;;18.60;63.40;;;;;;5025823;28;2119;-70
2023/05/15 08:53:06;;;;;;;;;;;18.60;64.20;;;;;;5026019;28;1808;-70
2023/05/15 08:55:31;;;;;;;;;;;18.60;64.40;;;;;;5029097;28;1443;-70
2023/05/15 09:00:37;;;;;;;;;;;18.60;64.60;;;;;;5688576;22;1477;-71
2023/05/15 09:03:03;;;;;;;;;;;18.60;64.70;;;;;;4997588;28;1906;-71
2023/05/15 09:05:28;;;;;;;;;;;18.60;64.70;;;;;;4984946;28;1517;-70
2023/05/15 09:07:54;;;;;;;;;;;18.60;64.60;;;;;;5002221;28;1475;-71
2023/05/15 09:10:19;;;;;;;;;;;18.60;64.50;;;;;;5000709;28;1293;-71
2023/05/15 09:12:45;;;;;;;;;;;18.60;64.50;;;;;;4988743;28;895;-70
2023/05/15 09:15:17;;;;;;;;;;;18.60;64.50;;;;;;5001411;28;870;-70
2023/05/15 09:17:43;;;;;;;;;;;18.60;64.50;;;;;;5002285;28;1907;-71
2023/05/15 09:20:23;;;;;;;;;;;18.70;64.50;;;;;;4999692;28;1346;-70
2023/05/15 09:22:49;;;;;;;;;;;18.60;64.40;;;;;;5002862;28;864;-70
2023/05/15 09:25:15;;;;;;;;;;;18.60;64.40;;;;;;4998552;28;831;-70
2023/05/15 09:27:41;;;;;;;;;;;18.70;64.50;;;;;;4986758;28;1367;-71
2023/05/15 09:30:07;;;;;;;;;;;18.70;64.70;;;;;;4986636;28;1729;-69
2023/05/15 09:32:33;;;;;;;;;;;18.70;64.80;;;;;;4986633;28;1504;-69
2023/05/15 09:34:58;;;;;;;;;;;18.60;64.50;;;;;;5002600;28;1145;-70
2023/05/15 09:37:28;;;;;;;;;;;18.60;64.50;;;;;;5005363;28;891;-70
2023/05/15 09:39:54;;;;;;;;;;;18.60;64.40;;;;;;5001739;28;1945;-70
2023/05/15 09:42:20;;;;;;;;;;;18.70;64.30;;;;;;4982811;28;1258;-69
2023/05/15 09:44:45;;;;;;;;;;;18.60;64.20;;;;;;5000330;28;860;-70
2023/05/15 09:47:11;;;;;;;;;;;18.60;64.00;;;;;;4999569;28;827;-70
2023/05/15 09:49:36;;;;;;;;;;;18.60;64.10;;;;;;4998540;28;1182;-72
2023/05/15 09:52:02;;;;;;;;;;;18.70;63.80;;;;;;4988684;28;820;-69
2023/05/15 09:54:30;;;;;;;;;;;18.60;64.10;;;;;;4986708;28;929;-72
2023/05/15 09:56:56;;;;;;;;;;;18.60;64.10;;;;;;4986067;28;859;-71
2023/05/15 09:59:22;;;;;;;;;;;18.70;64.20;;;;;;4983053;28;1910;-71
2023/05/15 10:01:53;;;;;;;;;;;18.60;64.10;;;;;;4994644;28;1317;-71
2023/05/15 10:04:18;;;;;;;;;;;18.70;64.10;;;;;;4994885;28;906;-71
2023/05/15 10:06:44;;;;;;;;;;;18.70;64.20;;;;;;4990856;28;1411;-68
2023/05/15 10:09:10;;;;;;;;;;;18.60;64.10;;;;;;4987583;28;1395;-70
2023/05/15 10:11:36;;;;;;;;;;;18.70;64.20;;;;;;4998945;28;1556;-70
2023/05/15 10:14:05;;;;;;;;;;;18.70;64.20;;;;;;4999877;28;792;-70
2023/05/15 10:16:34;;;;;;;;;;;18.70;64.30;;;;;;4984544;28;1278;-70
2023/05/15 10:19:03;;;;;;;;;;;18.70;64.20;;;;;;4983584;28;1902;-70
2023/05/15 10:21:33;;;;;;;;;;;18.70;64.10;;;;;;4985867;28;1213;-70
2023/05/15 10:23:58;;;;;;;;;;;18.60;63.80;;;;;;4986154;28;1006;-70
2023/05/15 10:26:28;;;;;;;;;;;18.70;63.70;;;;;;5004081;28;910;-70
2023/05/15 10:28:53;;;;;;;;;;;18.70;63.90;;;;;;4965702;28;831;-70
2023/05/15 10:31:19;;;;;;;;;;;18.70;63.90;;;;;;4984858;28;1246;-70
2023/05/15 10:33:44;;;;;;;;;;;18.60;63.90;;;;;;4984930;28;1456;-70
2023/05/15 10:36:10;;;;;;;;;;;18.70;63.50;;;;;;4984831;28;852;-70
2023/05/15 10:38:35;;;;;;;;;;;18.70;63.40;;;;;;4985953;28;1902;-70
2023/05/15 10:41:03;;;;;;;;;;;18.70;63.20;;;;;;4987748;28;1713;-71
2023/05/15 10:43:28;;;;;;;;;;;18.70;62.90;;;;;;5002300;28;907;-69
2023/05/15 10:45:54;;;;;;;;;;;18.60;62.70;;;;;;4984822;28;1086;-71
2023/05/15 10:48:19;;;;;;;;;;;18.70;63.20;;;;;;4999256;28;840;-69
2023/05/15 10:50:46;;;;;;;;;;;18.70;63.50;;;;;;4986433;28;1326;-69
2023/05/15 10:53:12;;;;;;;;;;;18.70;63.30;;;;;;4999615;28;943;-69
2023/05/15 10:55:38;;;;;;;;;;;18.70;62.80;;;;;;4999130;28;853;-69
2023/05/15 10:58:09;;;;;;;;;;;18.70;63.40;;;;;;4985884;28;1902;-69
2023/05/15 11:00:41;;;;;;;;;;;18.70;63.50;;;;;;4999054;28;1267;-69
2023/05/15 11:03:07;;;;;;;;;;;18.70;63.80;;;;;;4997100;28;1180;-70
2023/05/15 11:06:02;;;;;;;;;;;18.70;64.00;;;;;;4985481;28;794;-69
2023/05/15 11:08:27;;;;;;;;;;;18.70;64.20;;;;;;4990273;28;1321;-69
2023/05/15 11:10:53;;;;;;;;;;;18.70;64.60;;;;;;4998711;28;1358;-69
2023/05/15 11:13:18;;;;;;;;;;;18.70;64.60;;;;;;4999507;28;823;-69
2023/05/15 11:15:44;;;;;;;;;;;18.70;64.90;;;;;;5001183;28;866;-70
2023/05/15 11:18:10;;;;;;;;;;;18.70;65.10;;;;;;4997222;28;1993;-69
2023/05/15 11:20:39;;;;;;;;;;;18.70;64.00;;;;;;4995739;28;1185;-69
2023/05/15 11:23:05;;;;;;;;;;;18.70;63.80;;;;;;4995463;28;879;-69
2023/05/15 11:25:33;;;;;;;;;;;18.70;64.60;;;;;;5001764;28;939;-69
2023/05/15 11:27:59;;;;;;;;;;;18.70;64.90;;;;;;4985164;28;917;-69
2023/05/15 11:30:36;;;;;;;;;;;18.70;65.00;;;;;;5000224;28;1233;-69
2023/05/15 11:33:07;;;;;;;;;;;18.70;65.10;;;;;;4997095;28;1926;-71
2023/05/15 11:35:41;;;;;;;;;;;18.70;65.10;;;;;;4986774;28;1178;-72
2023/05/15 11:38:12;;;;;;;;;;;18.70;65.10;;;;;;4996514;28;1906;-73
2023/05/15 11:40:55;;;;;;;;;;;18.70;65.40;;;;;;4982675;28;1286;-71
2023/05/15 11:43:26;;;;;;;;;;;18.70;65.50;;;;;;4997494;28;859;-71
2023/05/15 11:45:54;;;;;;;;;;;18.70;65.80;;;;;;4999030;28;907;-72
2023/05/15 11:48:20;;;;;;;;;;;18.70;65.50;;;;;;4980765;28;1327;-72
2023/05/15 11:50:46;;;;;;;;;;;18.70;65.80;;;;;;4980681;28;1979;-73
2023/05/15 11:53:11;;;;;;;;;;;18.70;65.60;;;;;;5000344;28;1598;-69
2023/05/15 11:55:38;;;;;;;;;;;18.70;65.80;;;;;;4980527;28;1245;-71
2023/05/15 11:58:04;;;;;;;;;;;18.70;65.70;;;;;;4999009;28;1947;-71
2023/05/15 12:00:30;;;;;;;;;;;18.70;66.10;;;;;;4997575;28;1272;-71
2023/05/15 12:02:56;;;;;;;;;;;18.80;66.20;;;;;;4997034;28;1663;-70
2023/05/15 12:05:21;;;;;;;;;;;18.70;66.40;;;;;;4997993;28;820;-71
2023/05/15 12:07:47;;;;;;;;;;;18.70;66.40;;;;;;5000822;28;852;-72
2023/05/15 12:10:12;;;;;;;;;;;18.70;66.20;;;;;;4985054;28;1263;-72
2023/05/15 12:12:38;;;;;;;;;;;18.80;66.30;;;;;;4998153;28;829;-72
2023/05/15 12:15:04;;;;;;;;;;;18.80;66.10;;;;;;5000438;28;852;-71
2023/05/15 12:17:30;;;;;;;;;;;18.80;65.60;;;;;;4999077;28;827;-72
2023/05/15 12:19:56;;;;;;;;;;;18.80;65.40;;;;;;4997682;28;1961;-72
2023/05/15 12:22:22;;;;;;;;;;;18.80;65.20;;;;;;4999102;28;1272;-73
2023/05/15 12:24:48;;;;;;;;;;;18.80;64.70;;;;;;4983613;28;920;-73
2023/05/15 12:27:13;;;;;;;;;;;18.80;64.70;;;;;;4985094;28;952;-73
2023/05/15 12:29:39;;;;;;;;;;;18.80;64.10;;;;;;4976262;28;1730;-72
2023/05/15 12:32:05;;;;;;;;;;;18.80;64.30;;;;;;5000682;28;1530;-72
2023/05/15 12:34:30;;;;;;;;;;;18.90;64.60;;;;;;4987301;28;1418;-72
2023/05/15 12:36:58;;;;;;;;;;;18.80;64.20;;;;;;5003082;28;873;-72
2023/05/15 12:39:24;;;;;;;;;;;18.80;64.30;;;;;;4994303;28;1895;-72
2023/05/15 12:41:52;;;;;;;;;;;18.90;64.30;;;;;;4974417;28;1257;-72
2023/05/15 12:44:18;;;;;;;;;;;18.90;63.90;;;;;;5002931;28;831;-72
2023/05/15 12:46:44;;;;;;;;;;;18.90;64.30;;;;;;5003183;28;803;-73
2023/05/15 12:49:10;;;;;;;;;;;18.80;63.90;;;;;;4988630;28;930;-73
2023/05/15 12:51:40;;;;;;;;;;;18.80;63.70;;;;;;4998730;28;1245;-71
2023/05/15 12:54:15;;;;;;;;;;;18.90;61.20;;;;;;4999901;28;839;-71
2023/05/15 12:56:40;;;;;;;;;;;18.90;61.20;;;;;;4999470;28;841;-73
2023/05/15 12:59:06;;;;;;;;;;;18.90;61.50;;;;;;5004651;28;1968;-73
2023/05/15 13:01:31;;;;;;;;;;;18.90;62.30;;;;;;5002099;28;1263;-72
2023/05/15 13:03:57;;;;;;;;;;;18.90;62.40;;;;;;4999661;28;834;-72
2023/05/15 13:06:22;;;;;;;;;;;18.90;63.00;;;;;;4998911;28;843;-74
2023/05/15 13:08:48;;;;;;;;;;;18.90;63.70;;;;;;5002034;28;881;-73
2023/05/15 13:11:13;;;;;;;;;;;18.80;63.10;;;;;;5001717;28;1349;-73
2023/05/15 13:13:42;;;;;;;;;;;18.90;62.60;;;;;;5008560;28;865;-72
2023/05/15 13:16:21;;;;;;;;;;;18.90;62.60;;;;;;4979330;28;1205;-71
2023/05/15 13:18:46;;;;;;;;;;;18.90;62.90;;;;;;4988220;28;1910;-73
2023/05/15 13:21:12;;;;;;;;;;;18.90;63.10;;;;;;4987464;28;1261;-71
2023/05/15 13:23:37;;;;;;;;;;;18.90;62.50;;;;;;4983757;28;889;-70
2023/05/15 13:26:03;;;;;;;;;;;18.90;62.60;;;;;;4986320;28;1623;-70
2023/05/15 13:28:28;;;;;;;;;;;18.90;62.80;;;;;;5001876;28;1347;-71
2023/05/15 13:30:54;;;;;;;;;;;18.90;62.50;;;;;;5001481;28;1339;-70
2023/05/15 13:33:19;;;;;;;;;;;18.90;62.30;;;;;;5001477;28;1419;-72
2023/05/15 13:35:45;;;;;;;;;;;18.90;62.40;;;;;;5000909;28;947;-72
2023/05/15 13:38:11;;;;;;;;;;;18.90;62.20;;;;;;4998938;28;1914;-73
2023/05/15 13:40:37;;;;;;;;;;;18.90;62.00;;;;;;5000294;28;1257;-71
2023/05/15 13:43:02;;;;;;;;;;;18.90;62.30;;;;;;4987326;28;896;-71
2023/05/15 13:45:27;;;;;;;;;;;19.00;62.40;;;;;;5002153;28;859;-72
2023/05/15 13:47:53;;;;;;;;;;;18.90;62.30;;;;;;4976283;28;1360;-71
2023/05/15 13:50:19;;;;;;;;;;;18.90;62.20;;;;;;4985794;28;1280;-71
2023/05/15 13:52:45;;;;;;;;;;;19.00;63.00;;;;;;5005011;28;865;-70
2023/05/15 13:55:11;;;;;;;;;;;19.00;63.30;;;;;;4998636;28;828;-71
2023/05/15 13:57:36;;;;;;;;;;;19.00;63.00;;;;;;4988073;28;808;-70
2023/05/15 14:00:04;;;;;;;;;;;19.00;62.80;;;;;;5001914;28;1903;-70
2023/05/15 14:02:30;;;;;;;;;;;19.00;62.90;;;;;;5000548;28;899;-74
2023/05/15 14:04:55;;;;;;;;;;;18.90;63.10;;;;;;5000365;28;831;-73
2023/05/15 14:07:21;;;;;;;;;;;18.90;63.90;;;;;;5002221;28;891;-74
2023/05/15 14:09:47;;;;;;;;;;;19.00;64.50;;;;;;4988725;28;1286;-72
2023/05/15 14:12:12;;;;;;;;;;;18.90;65.10;;;;;;5001703;28;1026;-73
2023/05/15 14:14:38;;;;;;;;;;;18.90;65.60;;;;;;4983011;28;826;-72
2023/05/15 14:17:03;;;;;;;;;;;18.90;65.60;;;;;;5001529;28;860;-72
2023/05/15 14:19:29;;;;;;;;;;;18.90;66.10;;;;;;4987190;28;1918;-72
2023/05/15 14:21:54;;;;;;;;;;;18.90;66.20;;;;;;4984851;28;1993;-74
2023/05/15 14:24:20;;;;;;;;;;;18.90;66.30;;;;;;4985291;28;1939;-74
2023/05/15 14:26:45;;;;;;;;;;;18.90;66.50;;;;;;4994861;28;2098;-72
2023/05/15 14:29:11;;;;;;;;;;;18.90;66.60;;;;;;4993460;28;1335;-74
2023/05/15 14:31:36;;;;;;;;;;;18.90;66.70;;;;;;4997774;28;1268;-74
2023/05/15 14:34:02;;;;;;;;;;;18.90;66.50;;;;;;4983257;28;1430;-73